Time;durP1;ratioP1;P1;durP2;ratioP2;P2;SDS_P1;SDS_P2;PMS_P1;PMS_P2;Temp;Humidity;BMP_temperature;BMP_pressure;BME280_temperature;BME280_humidity;BME280_pressure;Samples;Min_cycle;Max_cycle;Signal;HPM_P1;HPM_P2
2023/05/03 06:30:50;;;;;;;14.57;8.38;;;11.60;99.90;;;;;;7217882;23;20185;-77
2023/05/03 06:33:52;;;;;;;14.32;8.57;;;11.70;99.90;;;;;;6109215;29;20127;-78
2023/05/03 06:36:54;;;;;;;14.15;8.23;;;11.80;99.90;;;;;;6108175;29;20048;-74
2023/05/03 06:39:56;;;;;;;14.60;8.15;;;11.90;99.90;;;;;;6133328;29;20050;-77
2023/05/03 06:42:58;;;;;;;13.63;8.80;;;12.00;99.90;;;;;;6132806;29;20171;-77
2023/05/03 06:46:02;;;;;;;12.55;8.25;;;12.00;99.90;;;;;;6132098;29;20048;-77
2023/05/03 06:49:03;;;;;;;11.43;8.30;;;12.10;99.90;;;;;;6131389;29;20409;-78
2023/05/03 06:52:06;;;;;;;11.85;8.27;;;12.10;99.90;;;;;;6128134;29;20054;-77
2023/05/03 06:55:08;;;;;;;13.05;8.88;;;11.90;99.90;;;;;;6131019;29;20048;-76
2023/05/03 06:58:10;;;;;;;12.88;9.05;;;12.10;99.90;;;;;;6131741;29;20058;-78
2023/05/03 07:01:14;;;;;;;12.10;8.98;;;12.20;99.90;;;;;;6131332;29;20106;-78
2023/05/03 07:04:15;;;;;;;13.20;9.50;;;12.10;99.90;;;;;;6131332;29;20047;-78
2023/05/03 07:07:17;;;;;;;13.77;9.55;;;12.20;99.90;;;;;;6131595;29;20056;-79
2023/05/03 07:10:19;;;;;;;12.23;9.18;;;12.40;99.90;;;;;;6131243;29;20515;-78
2023/05/03 07:13:21;;;;;;;13.63;9.52;;;12.30;99.90;;;;;;6131266;29;20051;-78
2023/05/03 07:16:24;;;;;;;12.52;8.40;;;12.30;99.90;;;;;;6131343;29;20085;-78
2023/05/03 07:19:26;;;;;;;14.57;9.05;;;12.30;99.90;;;;;;6131188;29;20132;-79
2023/05/03 07:22:28;;;;;;;14.25;8.95;;;12.50;99.90;;;;;;6129667;29;20066;-76
2023/05/03 07:25:31;;;;;;;15.10;9.13;;;12.50;99.90;;;;;;6130939;29;20048;-78
2023/05/03 07:28:33;;;;;;;13.90;9.23;;;12.60;99.90;;;;;;6130801;29;20051;-77
2023/05/03 07:31:36;;;;;;;13.85;9.07;;;12.50;99.90;;;;;;6130846;29;20052;-78
2023/05/03 07:34:38;;;;;;;12.90;8.93;;;12.70;99.90;;;;;;6130511;29;20401;-78
2023/05/03 07:37:40;;;;;;;15.48;9.88;;;12.80;99.90;;;;;;6130961;29;20055;-75
2023/05/03 07:40:42;;;;;;;13.82;9.52;;;12.70;99.90;;;;;;6130741;29;20059;-79
2023/05/03 07:43:44;;;;;;;15.85;9.23;;;12.80;99.90;;;;;;6130765;29;20052;-77
2023/05/03 07:46:48;;;;;;;14.05;8.55;;;12.90;99.90;;;;;;6130677;29;20043;-78
2023/05/03 07:49:49;;;;;;;15.35;8.88;;;13.10;99.90;;;;;;6130397;29;20496;-78
2023/05/03 07:52:51;;;;;;;13.93;8.68;;;12.90;99.90;;;;;;6130489;29;20134;-75
2023/05/03 07:55:55;;;;;;;14.35;9.10;;;12.90;99.90;;;;;;6130100;29;20043;-77
2023/05/03 07:58:57;;;;;;;13.07;8.38;;;13.10;99.90;;;;;;6130206;29;20088;-77
2023/05/03 08:02:00;;;;;;;13.10;8.82;;;13.10;99.90;;;;;;6131099;29;20048;-78
2023/05/03 08:05:03;;;;;;;13.45;9.10;;;13.00;99.90;;;;;;6132485;29;20054;-77
2023/05/03 08:08:05;;;;;;;13.20;8.98;;;13.20;99.90;;;;;;6130697;29;20057;-78
2023/05/03 08:11:07;;;;;;;13.55;9.43;;;13.20;99.90;;;;;;6132749;29;20055;-75
2023/05/03 08:14:09;;;;;;;13.93;9.27;;;13.20;99.90;;;;;;6116763;29;20052;-78
2023/05/03 08:17:12;;;;;;;15.90;9.90;;;13.20;99.90;;;;;;6105354;29;20056;-78
2023/05/03 08:20:15;;;;;;;14.35;9.52;;;13.10;99.90;;;;;;6109430;29;20063;-79
2023/05/03 08:23:18;;;;;;;12.73;9.00;;;13.20;99.90;;;;;;6129635;29;20497;-77
2023/05/03 08:26:20;;;;;;;13.57;9.30;;;13.30;99.90;;;;;;6129563;29;20048;-77
2023/05/03 08:29:22;;;;;;;15.93;9.77;;;13.50;99.90;;;;;;6129723;29;20087;-79
2023/05/03 08:32:25;;;;;;;15.32;10.57;;;13.40;99.90;;;;;;6129363;29;20062;-78
2023/05/03 08:35:27;;;;;;;15.25;10.20;;;13.40;99.90;;;;;;6128700;29;20047;-78
2023/05/03 08:38:30;;;;;;;15.30;10.27;;;13.50;99.90;;;;;;6128914;29;20054;-78
2023/05/03 08:41:32;;;;;;;15.18;10.40;;;13.50;99.90;;;;;;6128875;29;20138;-79
2023/05/03 08:44:38;;;;;;;15.23;10.63;;;13.60;99.90;;;;;;6129004;29;20044;-77
2023/05/03 08:47:43;;;;;;;15.35;11.00;;;13.70;99.90;;;;;;6128927;29;20043;-79
2023/05/03 08:50:45;;;;;;;15.57;10.77;;;13.70;99.90;;;;;;6129016;29;20048;-75
2023/05/03 08:53:47;;;;;;;15.63;11.38;;;13.80;99.90;;;;;;6129106;29;20058;-75
2023/05/03 08:56:49;;;;;;;15.00;11.23;;;13.60;99.90;;;;;;6128640;29;20491;-77
2023/05/03 08:59:57;;;;;;;15.43;11.70;;;13.70;99.90;;;;;;6128821;29;20062;-78
2023/05/03 09:03:00;;;;;;;15.57;11.40;;;13.80;99.90;;;;;;6128539;29;20095;-77
2023/05/03 09:06:02;;;;;;;16.52;11.45;;;14.00;99.90;;;;;;6128597;29;20051;-78
2023/05/03 09:09:07;;;;;;;16.52;11.52;;;14.10;99.90;;;;;;6128689;29;20052;-78
2023/05/03 09:12:09;;;;;;;15.85;11.77;;;14.10;99.90;;;;;;6128541;29;20051;-77
2023/05/03 09:15:21;;;;;;;15.13;11.40;;;14.20;99.90;;;;;;6128170;29;20048;-79
2023/05/03 09:18:25;;;;;;;14.48;10.93;;;14.20;99.90;;;;;;6128289;29;20051;-77
2023/05/03 09:21:28;;;;;;;15.43;11.20;;;14.40;99.90;;;;;;6128664;29;20050;-79
2023/05/03 09:24:30;;;;;;;14.18;10.68;;;14.50;99.90;;;;;;6128196;29;20107;-77
2023/05/03 09:27:32;;;;;;;13.00;10.10;;;14.70;99.90;;;;;;6127640;29;20401;-79
2023/05/03 09:30:34;;;;;;;15.60;11.32;;;14.70;99.90;;;;;;6124156;29;20056;-79
2023/05/03 09:33:37;;;;;;;14.07;10.20;;;14.70;99.90;;;;;;6121684;29;20052;-77
2023/05/03 09:36:47;;;;;;;14.05;10.85;;;14.80;99.90;;;;;;6123734;29;20048;-78
2023/05/03 09:39:49;;;;;;;16.02;9.98;;;15.10;99.90;;;;;;6124466;29;20509;-79
2023/05/03 09:43:08;;;;;;;14.77;9.57;;;15.20;99.90;;;;;;6124250;29;20055;-79
2023/05/03 09:46:12;;;;;;;13.50;9.23;;;15.30;99.90;;;;;;6124866;29;20059;-78
2023/05/03 09:49:15;;;;;;;20.67;9.30;;;15.30;99.90;;;;;;6124681;29;20509;-77
2023/05/03 09:52:17;;;;;;;14.90;10.75;;;15.40;99.60;;;;;;6124736;29;20063;-79
2023/05/03 09:55:20;;;;;;;14.43;10.23;;;15.30;99.90;;;;;;6123941;29;20082;-79
2023/05/03 09:58:26;;;;;;;14.90;10.90;;;15.50;99.90;;;;;;6124421;29;20054;-78
2023/05/03 10:01:28;;;;;;;14.85;10.82;;;15.50;99.40;;;;;;6124542;29;20055;-79
2023/05/03 10:04:42;;;;;;;15.63;10.88;;;15.50;99.90;;;;;;6124917;29;20059;-78
2023/05/03 10:07:45;;;;;;;14.88;9.93;;;15.50;99.60;;;;;;6117732;29;20059;-77
2023/05/03 10:10:50;;;;;;;16.27;10.25;;;15.60;99.90;;;;;;6101349;29;20055;-78
2023/05/03 10:13:53;;;;;;;15.30;10.40;;;15.70;99.70;;;;;;6101061;29;20048;-76
2023/05/03 10:17:01;;;;;;;15.48;10.73;;;15.70;99.40;;;;;;6099553;29;20462;-79
2023/05/03 10:20:22;;;;;;;13.35;10.07;;;15.80;99.40;;;;;;6101272;29;20052;-77
2023/05/03 10:23:25;;;;;;;14.50;10.25;;;15.90;98.90;;;;;;6110207;29;20513;-79
2023/05/03 10:26:26;;;;;;;15.38;9.85;;;15.90;98.60;;;;;;6124452;29;20052;-77
2023/05/03 10:29:51;;;;;;;14.73;10.30;;;16.00;98.20;;;;;;6126859;29;20055;-80
2023/05/03 10:32:53;;;;;;;14.07;9.70;;;16.00;98.30;;;;;;6127928;29;20103;-75
2023/05/03 10:35:56;;;;;;;11.95;9.00;;;16.00;98.10;;;;;;6129321;29;20048;-77
2023/05/03 10:38:58;;;;;;;16.27;9.93;;;16.20;97.80;;;;;;6128958;29;20605;-79
2023/05/03 10:42:03;;;;;;;17.63;9.82;;;16.30;97.90;;;;;;6128856;29;20044;-78
2023/05/03 10:45:10;;;;;;;12.57;8.95;;;16.30;97.80;;;;;;6128583;29;20047;-77
2023/05/03 10:48:21;;;;;;;13.90;9.02;;;16.50;98.00;;;;;;6128699;29;20413;-79
2023/05/03 10:51:35;;;;;;;14.45;8.75;;;16.50;97.80;;;;;;6129436;29;20067;-79
2023/05/03 10:54:37;;;;;;;11.38;8.52;;;16.70;97.50;;;;;;6128175;29;20060;-78
2023/05/03 10:57:41;;;;;;;11.05;8.45;;;16.70;96.60;;;;;;6128337;29;20047;-77
2023/05/03 11:00:43;;;;;;;12.32;8.95;;;16.60;96.60;;;;;;6131384;29;20044;-79
2023/05/03 11:03:52;;;;;;;11.20;8.05;;;16.50;97.20;;;;;;6128256;29;20055;-79
2023/05/03 11:06:57;;;;;;;10.70;7.60;;;16.70;96.70;;;;;;6127926;29;20056;-78
2023/05/03 11:09:59;;;;;;;10.63;7.43;;;16.80;96.20;;;;;;6128201;29;20153;-77
2023/05/03 11:13:01;;;;;;;10.55;7.20;;;16.90;96.20;;;;;;6128499;29;20048;-77
2023/05/03 11:16:06;;;;;;;10.00;6.93;;;16.90;95.80;;;;;;6128232;29;20485;-77
2023/05/03 11:19:08;;;;;;;9.70;7.00;;;16.80;94.60;;;;;;6127833;29;20425;-77
2023/05/03 11:22:12;;;;;;;9.00;6.88;;;16.80;95.70;;;;;;6127993;29;20187;-78
2023/05/03 11:25:14;;;;;;;9.88;7.47;;;16.90;96.40;;;;;;6127958;29;20059;-76
2023/05/03 11:28:16;;;;;;;10.27;6.95;;;17.00;95.00;;;;;;6134600;29;20545;-77
2023/05/03 11:31:18;;;;;;;9.73;7.03;;;16.90;94.30;;;;;;6129595;29;20051;-77
2023/05/03 11:34:20;;;;;;;9.40;6.38;;;17.10;94.70;;;;;;6124163;29;20366;-77
2023/05/03 11:37:23;;;;;;;8.40;5.30;;;17.30;94.20;;;;;;6128068;29;20064;-77
2023/05/03 11:40:25;;;;;;;8.93;6.40;;;17.30;93.50;;;;;;6127183;29;20060;-77
2023/05/03 11:43:27;;;;;;;9.45;6.03;;;17.50;93.30;;;;;;6127828;29;20142;-77
2023/05/03 11:46:34;;;;;;;10.82;5.88;;;17.40;92.50;;;;;;6127844;29;20062;-77
2023/05/03 11:49:36;;;;;;;10.93;5.95;;;17.30;92.10;;;;;;6127407;29;20768;-79
2023/05/03 11:52:39;;;;;;;8.65;5.68;;;17.50;92.40;;;;;;6126748;29;20075;-76
2023/05/03 11:55:45;;;;;;;10.75;7.43;;;17.70;91.30;;;;;;6127672;29;20482;-77
2023/05/03 11:58:52;;;;;;;8.68;5.63;;;17.80;91.60;;;;;;6127134;29;20078;-79
2023/05/03 12:01:54;;;;;;;8.80;5.10;;;18.20;91.20;;;;;;6127175;29;20138;-78
2023/05/03 12:04:57;;;;;;;7.90;5.07;;;18.20;89.60;;;;;;6126697;29;20051;-77
2023/05/03 12:08:00;;;;;;;8.10;5.40;;;18.20;90.00;;;;;;6127023;29;20480;-76
2023/05/03 12:11:03;;;;;;;10.02;4.85;;;18.30;88.30;;;;;;6127809;29;20063;-77
2023/05/03 12:14:05;;;;;;;8.43;5.20;;;18.40;89.00;;;;;;6127572;29;20465;-76
2023/05/03 12:17:08;;;;;;;8.10;5.10;;;18.70;88.90;;;;;;6128060;29;20048;-78
2023/05/03 12:20:18;;;;;;;6.38;4.47;;;18.90;88.90;;;;;;6128708;29;20051;-77
2023/05/03 12:23:22;;;;;;;7.18;4.32;;;19.00;86.50;;;;;;6129194;29;20062;-77
2023/05/03 12:26:25;;;;;;;6.28;4.47;;;19.10;86.00;;;;;;6127933;29;20127;-79
2023/05/03 12:29:30;;;;;;;7.05;5.20;;;19.20;82.50;;;;;;6127727;29;20062;-79
2023/05/03 12:32:32;;;;;;;7.85;4.13;;;18.70;82.20;;;;;;6128643;29;20446;-77
2023/05/03 12:35:35;;;;;;;7.50;4.95;;;18.70;83.50;;;;;;6128458;29;20379;-78
2023/05/03 12:38:38;;;;;;;6.15;4.03;;;19.00;82.50;;;;;;6130428;29;20055;-77
2023/05/03 12:41:41;;;;;;;6.30;4.30;;;19.30;82.40;;;;;;6131541;29;20067;-78
2023/05/03 12:44:43;;;;;;;7.40;4.32;;;19.40;81.50;;;;;;6130768;29;20051;-75
2023/05/03 12:47:45;;;;;;;5.95;4.30;;;19.40;79.60;;;;;;6135927;29;20055;-78
2023/05/03 12:50:47;;;;;;;8.63;4.78;;;19.30;80.10;;;;;;6134318;29;20067;-79
2023/05/03 12:53:50;;;;;;;6.80;4.47;;;19.10;80.70;;;;;;6135184;29;20054;-78
2023/05/03 12:56:52;;;;;;;8.25;5.28;;;19.40;79.50;;;;;;6134270;29;20083;-77
2023/05/03 12:59:54;;;;;;;5.85;3.92;;;19.60;77.90;;;;;;6136372;29;20418;-79
2023/05/03 13:02:55;;;;;;;5.60;3.45;;;19.70;78.00;;;;;;6142547;29;20048;-78
2023/05/03 13:05:58;;;;;;;5.57;3.50;;;20.10;75.40;;;;;;6139999;29;20070;-77
2023/05/03 13:09:01;;;;;;;5.30;3.10;;;20.30;72.80;;;;;;6138492;29;20430;-75
2023/05/03 13:12:03;;;;;;;6.28;3.90;;;20.10;73.70;;;;;;6136880;29;20051;-77
2023/05/03 13:15:07;;;;;;;6.32;4.10;;;20.20;73.80;;;;;;6137109;29;20051;-76
2023/05/03 13:18:09;;;;;;;8.38;3.60;;;20.30;74.70;;;;;;6139141;29;20058;-76
2023/05/03 13:21:11;;;;;;;5.55;3.70;;;20.80;73.50;;;;;;6133915;29;20070;-75
2023/05/03 13:24:14;;;;;;;6.65;3.63;;;20.40;71.20;;;;;;6131869;29;20052;-77
2023/05/03 13:27:17;;;;;;;6.45;3.45;;;20.50;71.80;;;;;;6128778;29;20047;-77
2023/05/03 13:30:20;;;;;;;5.70;3.58;;;20.50;72.40;;;;;;6125949;29;20055;-78
2023/05/03 13:33:22;;;;;;;5.57;3.28;;;20.80;73.50;;;;;;6123535;29;20048;-77
2023/05/03 13:36:25;;;;;;;4.65;3.08;;;21.20;71.90;;;;;;6125336;29;20074;-76
2023/05/03 13:39:28;;;;;;;4.65;3.15;;;21.50;72.20;;;;;;6125091;29;20051;-78
2023/05/03 13:42:30;;;;;;;5.88;3.38;;;21.60;71.20;;;;;;6124574;29;20063;-76
2023/05/03 13:45:32;;;;;;;5.22;3.28;;;21.70;71.00;;;;;;6125596;29;20055;-76
2023/05/03 13:48:34;;;;;;;4.95;3.13;;;22.00;69.70;;;;;;6126487;29;20058;-78
2023/05/03 13:51:37;;;;;;;6.90;3.20;;;22.00;69.50;;;;;;6126169;29;20048;-76
2023/05/03 13:54:41;;;;;;;6.60;3.00;;;21.70;66.80;;;;;;6123804;29;20055;-78
2023/05/03 13:57:43;;;;;;;5.40;2.83;;;22.00;68.40;;;;;;6125832;29;20055;-78
2023/05/03 14:00:45;;;;;;;4.47;2.92;;;22.20;65.60;;;;;;6125898;29;20134;-76
2023/05/03 14:03:48;;;;;;;4.70;3.00;;;21.90;66.80;;;;;;6130310;29;20044;-76
2023/05/03 14:06:50;;;;;;;;;;;21.70;67.40;;;;;;6131453;29;20062;-77
2023/05/03 14:09:53;;;;;;;6.53;3.23;;;21.70;67.30;;;;;;6129806;29;19989;-75
2023/05/03 14:12:56;;;;;;;5.40;2.75;;;21.20;67.30;;;;;;6129917;29;20411;-77
2023/05/03 14:15:58;;;;;;;4.35;3.05;;;21.20;67.00;;;;;;6136338;29;20044;-78
2023/05/03 14:19:00;;;;;;;5.20;3.00;;;21.40;67.20;;;;;;6131821;29;20062;-76
2023/05/03 14:22:02;;;;;;;4.75;3.08;;;21.80;69.30;;;;;;6131932;29;20059;-78
2023/05/03 14:25:07;;;;;;;6.28;3.22;;;22.30;66.50;;;;;;6129112;29;20142;-77
2023/05/03 14:28:09;;;;;;;4.30;2.60;;;22.00;64.60;;;;;;6128933;29;20485;-77
2023/05/03 14:31:12;;;;;;;4.70;2.63;;;21.80;64.30;;;;;;6127701;29;20059;-76
2023/05/03 14:34:13;;;;;;;6.28;2.85;;;21.70;64.80;;;;;;6126456;29;20055;-76
2023/05/03 14:37:15;;;;;;;4.75;2.70;;;21.60;63.30;;;;;;6128283;29;20172;-76
2023/05/03 14:40:20;;;;;;;3.88;2.40;;;22.10;62.60;;;;;;6127763;29;20482;-77
2023/05/03 14:43:22;;;;;;;4.05;2.38;;;22.60;61.40;;;;;;6126814;29;20052;-78
2023/05/03 14:46:24;;;;;;;6.55;2.63;;;22.90;60.70;;;;;;6127669;29;20056;-76
2023/05/03 14:49:26;;;;;;;5.15;2.50;;;23.00;59.00;;;;;;6128855;29;20075;-78
2023/05/03 14:52:28;;;;;;;5.18;2.70;;;23.60;59.70;;;;;;6126740;29;20144;-77
2023/05/03 14:55:32;;;;;;;4.30;2.47;;;23.50;57.80;;;;;;6128372;29;20047;-77
2023/05/03 14:58:34;;;;;;;4.88;2.80;;;24.00;60.00;;;;;;6126834;29;20066;-72
2023/05/03 15:01:36;;;;;;;4.75;2.80;;;24.10;57.30;;;;;;6138684;29;20060;-80
2023/05/03 15:04:38;;;;;;;4.18;2.58;;;24.20;56.20;;;;;;6138343;29;20058;-76
2023/05/03 15:07:40;;;;;;;3.90;2.30;;;24.10;55.90;;;;;;6119909;29;20063;-78
2023/05/03 15:10:44;;;;;;;4.97;2.27;;;23.80;56.40;;;;;;6122965;29;20056;-79
2023/05/03 15:13:46;;;;;;;3.45;2.40;;;24.50;55.40;;;;;;6139867;29;20057;-77
2023/05/03 15:16:48;;;;;;;3.90;2.10;;;25.70;53.70;;;;;;6142692;29;20047;-78
2023/05/03 15:19:51;;;;;;;3.75;1.90;;;26.90;53.40;;;;;;6126482;29;20055;-77
2023/05/03 15:22:53;;;;;;;3.78;2.10;;;28.40;52.00;;;;;;6123193;29;20078;-78
2023/05/03 15:25:56;;;;;;;4.10;2.10;;;29.80;47.70;;;;;;6124719;29;20051;-78
2023/05/03 15:28:58;;;;;;;4.18;2.17;;;28.80;47.20;;;;;;6124589;29;20424;-78
2023/05/03 15:32:01;;;;;;;2.80;1.77;;;27.30;45.80;;;;;;6124480;29;20055;-77
2023/05/03 15:35:02;;;;;;;;;;;28.20;48.40;;;;;;6122682;29;20669;-81
2023/05/03 15:38:05;;;;;;;;;;;27.60;46.60;;;;;;6125540;29;19934;-76
2023/05/03 15:41:08;;;;;;;3.30;2.05;;;29.20;45.50;;;;;;6121312;29;20258;-78
2023/05/03 15:44:10;;;;;;;3.20;1.73;;;30.50;45.50;;;;;;6126934;29;20494;-78
2023/05/03 15:47:12;;;;;;;4.72;1.95;;;31.10;45.10;;;;;;6127301;29;20066;-77
2023/05/03 15:50:13;;;;;;;2.75;1.70;;;31.60;44.60;;;;;;6126374;29;20060;-78
2023/05/03 15:53:15;;;;;;;4.13;1.80;;;32.10;43.20;;;;;;6126804;29;20051;-78
2023/05/03 15:56:19;;;;;;;;;;;32.10;41.50;;;;;;6127001;29;20195;-77
2023/05/03 15:59:21;;;;;;;4.43;2.33;;;31.30;42.30;;;;;;6126713;29;20312;-76
2023/05/03 16:02:23;;;;;;;3.83;1.90;;;30.00;42.10;;;;;;6127051;29;20048;-78
2023/05/03 16:05:25;;;;;;;5.05;2.47;;;30.80;41.80;;;;;;6126676;29;20054;-76
2023/05/03 16:08:29;;;;;;;4.22;2.08;;;30.80;41.70;;;;;;6126554;29;20279;-77
2023/05/03 16:11:32;;;;;;;4.32;2.30;;;29.60;44.40;;;;;;6127574;29;20067;-77
2023/05/03 16:14:35;;;;;;;4.65;2.30;;;28.90;44.70;;;;;;6127111;29;20043;-78
2023/05/03 16:17:37;;;;;;;3.40;2.20;;;28.70;45.10;;;;;;6126223;29;20056;-79
2023/05/03 16:20:38;;;;;;;4.30;2.53;;;27.70;44.90;;;;;;6126394;29;20054;-79
2023/05/03 16:23:40;;;;;;;4.20;2.43;;;28.60;45.30;;;;;;6126398;29;20319;-79
2023/05/03 16:26:45;;;;;;;4.63;2.40;;;28.60;44.40;;;;;;6125373;29;20055;-77
2023/05/03 16:29:47;;;;;;;4.45;2.30;;;28.20;45.20;;;;;;6125289;29;20473;-78
2023/05/03 16:32:48;;;;;;;5.90;2.10;;;29.20;46.20;;;;;;6125160;29;20054;-78
2023/05/03 16:35:50;;;;;;;3.50;2.30;;;28.50;44.50;;;;;;6124923;29;20048;-79
2023/05/03 16:38:52;;;;;;;4.10;2.20;;;27.90;45.10;;;;;;6124342;29;20059;-77
2023/05/03 16:41:55;;;;;;;3.83;2.10;;;28.30;45.60;;;;;;6126164;29;20107;-76
2023/05/03 16:44:57;;;;;;;3.92;2.30;;;28.60;46.10;;;;;;6125576;29;20058;-77
2023/05/03 16:47:59;;;;;;;7.17;2.67;;;28.90;44.20;;;;;;6114826;29;20055;-77
2023/05/03 16:51:02;;;;;;;4.40;2.47;;;29.30;46.00;;;;;;6118392;29;20619;-76
2023/05/03 16:54:05;;;;;;;4.18;2.50;;;28.90;44.60;;;;;;6120541;29;20055;-77
2023/05/03 16:57:08;;;;;;;5.38;2.53;;;28.30;44.80;;;;;;6102963;29;20141;-77
2023/05/03 17:00:12;;;;;;;6.40;2.55;;;28.10;45.90;;;;;;6123934;29;20401;-78
2023/05/03 17:03:14;;;;;;;5.70;2.70;;;27.80;46.40;;;;;;6125524;29;20055;-79
2023/05/03 17:06:17;;;;;;;5.22;2.65;;;28.10;45.50;;;;;;6113213;29;20052;-78
2023/05/03 17:09:20;;;;;;;;;;;28.20;45.50;;;;;;6106551;29;20398;-76
2023/05/03 17:12:24;;;;;;;5.10;2.35;;;26.90;46.00;;;;;;6124405;29;19926;-77
2023/05/03 17:15:26;;;;;;;3.95;2.35;;;26.70;47.10;;;;;;6124610;29;20058;-79
2023/05/03 17:18:28;;;;;;;5.10;2.67;;;27.00;46.50;;;;;;6118363;29;20142;-78
2023/05/03 17:21:30;;;;;;;5.55;2.13;;;27.50;46.60;;;;;;6123263;29;20054;-76
2023/05/03 17:24:33;;;;;;;4.75;2.40;;;27.50;47.10;;;;;;6107498;29;20134;-80
2023/05/03 17:27:37;;;;;;;5.00;2.40;;;27.60;45.60;;;;;;6114631;29;20047;-77
2023/05/03 17:30:38;;;;;;;4.53;2.40;;;27.50;45.90;;;;;;6120228;29;20458;-78
2023/05/03 17:33:40;;;;;;;4.05;2.42;;;27.60;45.50;;;;;;6120321;29;20056;-82
2023/05/03 17:36:42;;;;;;;5.80;2.40;;;27.10;45.60;;;;;;6123320;29;20064;-76
2023/05/03 17:39:44;;;;;;;6.28;3.20;;;26.20;47.50;;;;;;6121507;29;20055;-74
2023/05/03 17:42:48;;;;;;;4.90;2.60;;;26.10;47.40;;;;;;6123091;29;20606;-75
2023/05/03 17:45:49;;;;;;;5.80;2.50;;;26.00;48.00;;;;;;6123953;29;20052;-76
2023/05/03 17:48:52;;;;;;;6.57;2.75;;;26.40;49.00;;;;;;6124765;29;20472;-76
2023/05/03 17:51:54;;;;;;;4.30;2.30;;;26.00;47.40;;;;;;6124516;29;20056;-76
2023/05/03 17:54:57;;;;;;;6.50;2.47;;;26.10;47.10;;;;;;6108788;29;20040;-78
2023/05/03 17:58:00;;;;;;;5.80;3.03;;;25.80;47.60;;;;;;6121365;29;20054;-77
2023/05/03 18:01:02;;;;;;;3.30;1.95;;;25.20;47.60;;;;;;6123189;29;20061;-77
2023/05/03 18:04:04;;;;;;;4.65;2.10;;;25.10;48.80;;;;;;6122161;29;20052;-78
2023/05/03 18:07:05;;;;;;;4.57;2.42;;;24.90;49.80;;;;;;6132127;29;20429;-76
2023/05/03 18:10:13;;;;;;;6.72;4.20;;;24.80;48.90;;;;;;6121506;29;20054;-79
2023/05/03 18:13:16;;;;;;;5.78;2.67;;;24.60;51.20;;;;;;6132971;29;20047;-82
2023/05/03 18:16:18;;;;;;;5.68;2.80;;;24.00;50.50;;;;;;6136029;29;20363;-77
2023/05/03 18:19:21;;;;;;;5.88;2.80;;;23.60;51.60;;;;;;6140408;29;20058;-79
2023/05/03 18:22:26;;;;;;;6.00;3.05;;;22.80;53.60;;;;;;6137456;29;20059;-77
2023/05/03 18:25:29;;;;;;;4.20;2.67;;;22.40;55.10;;;;;;6122221;29;20051;-81
2023/05/03 18:28:33;;;;;;;4.68;2.70;;;22.40;55.70;;;;;;6121103;29;20047;-79
2023/05/03 18:31:35;;;;;;;5.95;2.53;;;22.20;55.40;;;;;;6115402;29;20064;-81
2023/05/03 18:34:37;;;;;;;4.55;2.30;;;22.10;55.60;;;;;;6101957;29;20050;-79
2023/05/03 18:37:40;;;;;;;4.03;2.20;;;22.00;56.90;;;;;;6120961;29;20051;-80
2023/05/03 18:40:42;;;;;;;4.25;2.50;;;22.00;56.50;;;;;;6118713;29;20709;-80
2023/05/03 18:43:46;;;;;;;4.05;2.65;;;20.90;58.20;;;;;;6117951;29;20051;-79
2023/05/03 18:46:49;;;;;;;5.43;2.75;;;20.70;60.10;;;;;;6119216;29;20098;-77
2023/05/03 18:49:51;;;;;;;4.97;2.63;;;20.80;60.30;;;;;;6117666;29;20513;-77
2023/05/03 18:52:53;;;;;;;4.15;2.72;;;20.90;60.10;;;;;;6123549;29;20058;-79
2023/05/03 18:55:55;;;;;;;4.95;2.70;;;20.80;59.10;;;;;;6116836;29;20051;-79
2023/05/03 18:58:59;;;;;;;4.90;2.53;;;20.70;59.50;;;;;;6124079;29;20122;-77
2023/05/03 19:02:02;;;;;;;4.47;2.75;;;20.60;60.60;;;;;;6124794;29;20521;-77
2023/05/03 19:05:05;;;;;;;;;;;20.40;61.20;;;;;;6119899;29;20406;-77
2023/05/03 19:08:07;;;;;;;5.25;2.75;;;20.20;61.70;;;;;;6125565;29;19934;-77
2023/05/03 19:11:11;;;;;;;5.82;2.75;;;20.10;62.80;;;;;;6126056;29;20429;-80
2023/05/03 19:14:15;;;;;;;4.25;2.75;;;20.00;63.50;;;;;;6125241;29;20154;-77
2023/05/03 19:17:16;;;;;;;;;;;19.90;63.30;;;;;;6125540;29;20812;-79
2023/05/03 19:20:18;;;;;;;5.78;2.75;;;19.70;64.60;;;;;;6129127;29;19926;-81
2023/05/03 19:23:20;;;;;;;5.43;3.00;;;19.50;63.60;;;;;;6133142;29;20055;-79
2023/05/03 19:26:24;;;;;;;6.90;2.90;;;19.40;64.90;;;;;;6122798;29;20055;-79
2023/05/03 19:29:28;;;;;;;4.78;2.65;;;19.30;65.00;;;;;;6123556;29;20054;-78
2023/05/03 19:32:33;;;;;;;8.02;2.67;;;19.20;66.10;;;;;;6125948;29;20454;-79
2023/05/03 19:35:38;;;;;;;4.80;2.90;;;19.10;66.00;;;;;;6127580;29;20090;-78
2023/05/03 19:38:42;;;;;;;5.90;3.13;;;18.90;66.80;;;;;;6125444;29;20060;-79
2023/05/03 19:41:43;;;;;;;;;;;18.80;66.60;;;;;;6126301;29;20111;-78
2023/05/03 19:44:47;;;;;;;4.45;3.03;;;18.60;68.00;;;;;;6127399;29;19927;-77
2023/05/03 19:47:49;;;;;;;5.32;2.97;;;18.60;68.00;;;;;;6129348;29;20063;-78
2023/05/03 19:50:52;;;;;;;4.75;3.17;;;18.60;68.20;;;;;;6131947;29;20063;-80
2023/05/03 19:53:54;;;;;;;;;;;18.50;68.50;;;;;;6130118;29;20066;-77
2023/05/03 19:56:56;;;;;;;6.70;3.10;;;18.40;67.10;;;;;;6122701;29;19934;-77
2023/05/03 20:00:00;;;;;;;4.85;3.47;;;18.40;67.90;;;;;;6124388;29;20052;-80
2023/05/03 20:03:01;;;;;;;6.28;3.10;;;18.10;68.80;;;;;;6103098;29;20060;-79
2023/05/03 20:06:03;;;;;;;5.30;3.40;;;18.10;68.80;;;;;;6107167;29;20063;-81
2023/05/03 20:09:05;;;;;;;6.60;3.53;;;18.00;69.70;;;;;;6123402;29;20047;-76
2023/05/03 20:12:09;;;;;;;5.75;3.78;;;18.00;69.90;;;;;;6125367;29;20056;-80
2023/05/03 20:15:13;;;;;;;5.60;3.22;;;17.90;69.50;;;;;;6124934;29;20062;-79
2023/05/03 20:18:14;;;;;;;6.05;3.63;;;17.80;69.40;;;;;;6129623;29;20052;-81
2023/05/03 20:21:16;;;;;;;6.47;4.00;;;17.80;70.70;;;;;;6133812;29;20059;-79
2023/05/03 20:24:20;;;;;;;5.40;3.45;;;17.70;70.60;;;;;;6132259;29;20055;-79
2023/05/03 20:27:21;;;;;;;7.78;3.88;;;17.60;71.40;;;;;;6133109;29;20048;-79
2023/05/03 20:30:25;;;;;;;6.72;3.80;;;17.50;71.90;;;;;;6132561;29;20051;-78
2023/05/03 20:33:26;;;;;;;6.70;3.83;;;17.40;72.70;;;;;;6125086;29;20058;-78
2023/05/03 20:36:29;;;;;;;7.13;3.97;;;17.30;73.20;;;;;;6124311;29;20074;-80
2023/05/03 20:39:32;;;;;;;10.05;4.20;;;17.20;73.50;;;;;;6126682;29;20058;-78
2023/05/03 20:42:34;;;;;;;6.72;4.25;;;17.10;74.60;;;;;;6126905;29;20055;-78
2023/05/03 20:45:37;;;;;;;5.70;3.60;;;17.00;75.20;;;;;;6125607;29;20044;-79
2023/05/03 20:48:39;;;;;;;5.88;4.10;;;16.90;75.60;;;;;;6127115;29;20051;-78
2023/05/03 20:51:41;;;;;;;9.77;4.10;;;16.80;76.30;;;;;;6124004;29;20058;-78
2023/05/03 20:54:45;;;;;;;9.27;4.85;;;16.70;76.80;;;;;;6126375;29;20066;-79
2023/05/03 20:57:47;;;;;;;7.50;5.28;;;16.70;77.40;;;;;;6125070;29;20078;-78
2023/05/03 21:00:51;;;;;;;7.15;4.10;;;16.60;77.50;;;;;;6124303;29;20048;-78
2023/05/03 21:03:54;;;;;;;9.50;4.63;;;16.50;78.00;;;;;;6125834;29;20052;-78
2023/05/03 21:06:55;;;;;;;6.97;4.35;;;16.40;78.70;;;;;;6123281;29;20508;-78
2023/05/03 21:09:57;;;;;;;6.60;4.68;;;16.40;78.00;;;;;;6123804;29;20051;-80
2023/05/03 21:12:59;;;;;;;6.38;4.25;;;16.30;78.90;;;;;;6124816;29;20055;-79
2023/05/03 21:16:03;;;;;;;8.35;4.43;;;16.30;79.50;;;;;;6124983;29;20523;-79
2023/05/03 21:19:05;;;;;;;6.38;4.60;;;16.20;80.50;;;;;;6123694;29;20516;-79
2023/05/03 21:22:07;;;;;;;5.93;4.25;;;16.20;80.90;;;;;;6122805;29;20047;-78
2023/05/03 21:25:10;;;;;;;7.45;4.28;;;16.00;80.80;;;;;;6124057;29;20051;-79
2023/05/03 21:28:12;;;;;;;9.13;5.18;;;15.90;81.10;;;;;;6124985;29;20504;-81
2023/05/03 21:31:15;;;;;;;6.28;4.93;;;15.80;81.30;;;;;;6122145;29;20432;-80
2023/05/03 21:34:17;;;;;;;7.07;4.80;;;15.80;81.80;;;;;;6126409;29;20055;-78
2023/05/03 21:37:19;;;;;;;9.30;5.45;;;15.70;81.90;;;;;;6129271;29;20107;-77
2023/05/03 21:40:21;;;;;;;9.77;5.82;;;15.60;81.90;;;;;;6127452;29;20058;-79
2023/05/03 21:43:23;;;;;;;7.53;5.32;;;15.60;82.40;;;;;;6129053;29;20051;-78
2023/05/03 21:46:26;;;;;;;7.18;4.43;;;15.60;83.00;;;;;;6128142;29;20048;-79
2023/05/03 21:49:28;;;;;;;11.20;5.20;;;15.60;83.10;;;;;;6125956;29;20051;-78
2023/05/03 21:52:31;;;;;;;7.78;5.07;;;15.50;83.40;;;;;;6126469;29;20412;-79
2023/05/03 21:55:33;;;;;;;6.78;4.90;;;15.50;84.60;;;;;;6128530;29;20060;-80
2023/05/03 21:58:35;;;;;;;5.90;4.53;;;15.40;84.60;;;;;;6128557;29;20399;-79
